Aviation Digital Data Service (ADDS)

Output produced by METARs form (0803 UTC 18 February 2019)
found at http://www.aviationweather.gov/metar/data/
 
Forecast for: UKDD (DNIPROPETROVSK , UA)
Text: TAF UKDD 180505Z 1806/1906 34008MPS 9999 BKN020 TX04/1812Z TNM04/1904Z
Forecast period: 0600 to 1800 UTC 18 February 2019
Forecast type: FROM: standard forecast or significant change
Winds: from the NNW (340 degrees) at 18 MPH (16 knots; 8.2 m/s)
Visibility: 6 or more miles 10+ km)
Ceiling: 2000 feet AGL
Clouds: broken clouds at 2000 feet AGL
Weather: no significant weather forecast for this period
Text: TEMPO 1806/1818 35009G14MPS
Forecast period: 0600 to 1800 UTC 18 February 2019
Forecast type: TEMPORARY: The following changes expected for less than half the time period
Winds: from the N (350 degrees) at 20 MPH (17 knots; 8.7 m/s)
gusting to 31 MPH (27 knots; 13.9 m/s)
Visibility: missing
Ceiling: unknown
Clouds: missing
Weather: no significant weather forecast for this period
Text: BECMG 1818/1820 03004MPS
Forecast period: 1800 UTC 18 February 2019 to 0600 UTC 19 February 2019
Forecast type: BECOMING: Conditions expected to become as follows by 2000 UTC 18 February 2019
Winds: from the NNE (30 degrees) at 9 MPH (8 knots; 4.1 m/s)
Visibility: 6 or more miles 10+ km)
Ceiling: 2000 feet AGL
Clouds: broken clouds at 2000 feet AGL
Weather: no significant weather forecast for this period